Terminal Aerodrome Forecast
Issued by NWS Central Illinois

Home | Current Version | Previous Version | Text Only | Print | Product List | Glossary On
Versions: 1 2 3 4 5 6 7 8 9 10 11 12 13 14 15 16 17
000
FTUS43 KILX 220525
TAFPIA
TAF
KPIA 220525Z 2206/2306 01007KT P6SM FEW050 BKN300
     FM220800 20007KT P6SM VCTS SCT050CB BKN300 WS020/24040KT
     FM221400 23009KT P6SM SCT050 BKN300
     FM222300 29007KT P6SM FEW050 SCT300=

USA.gov is the U.S. government's official web portal to all federal, state and local government web resources and services.